Strasbourg, France
Current Conditions -  °F | °C
As of 6:30 PM on Tuesday 21 Oct 2014 (Local Time) from LFST Reporting Station
Moderate Rain Moderate Rain  
Wind Chill: 52°   Ceiling: 5000
Heat Index: 52°   Visibility: 2.3mi
Dew Point: 46°   Wind: 36mph
Humidity: 82%   Direction: 290°WNW
Pressure: 29.74"   Gusts: 66mph
Location:  48.58°N, 7.74°E
Report Text: LFST 211630Z AUTO 29031G57KT 250V320 3800 RA BR SCT030///BKN050/// BKN068/// ///CB 11/08 Q1007
Loading
Personal Weather Stations






























Interactive Weather Map
Tropical Storm Tracking
New forecast layout! Learn more

10-Day Weather Forecast

Advertisements
Track Severe Weather on mobile